sensor_id;sensor_type;location;lat;lon;timestamp;P1;durP1;ratioP1;P2;durP2;ratioP2
64060;SDS011;60147;55.036;73.242;2022-07-29T00:01:24;5.10;;;4.00;;
64060;SDS011;60147;55.036;73.242;2022-07-29T00:04:00;6.28;;;3.63;;
64060;SDS011;60147;55.036;73.242;2022-07-29T00:06:26;6.68;;;3.80;;
64060;SDS011;60147;55.036;73.242;2022-07-29T00:08:52;6.03;;;4.07;;
64060;SDS011;60147;55.036;73.242;2022-07-29T00:11:23;6.85;;;4.15;;
64060;SDS011;60147;55.036;73.242;2022-07-29T00:13:49;6.97;;;4.50;;
64060;SDS011;60147;55.036;73.242;2022-07-29T00:16:14;6.68;;;4.35;;
64060;SDS011;60147;55.036;73.242;2022-07-29T00:18:43;14.18;;;5.45;;
64060;SDS011;60147;55.036;73.242;2022-07-29T00:21:08;6.82;;;4.15;;
64060;SDS011;60147;55.036;73.242;2022-07-29T00:23:40;8.50;;;4.68;;
64060;SDS011;60147;55.036;73.242;2022-07-29T00:26:17;6.60;;;3.75;;
64060;SDS011;60147;55.036;73.242;2022-07-29T00:28:42;5.15;;;4.00;;
64060;SDS011;60147;55.036;73.242;2022-07-29T00:31:10;5.88;;;4.22;;
64060;SDS011;60147;55.036;73.242;2022-07-29T00:33:43;5.60;;;3.45;;
64060;SDS011;60147;55.036;73.242;2022-07-29T00:36:09;4.22;;;3.13;;
64060;SDS011;60147;55.036;73.242;2022-07-29T00:38:35;4.70;;;3.60;;
64060;SDS011;60147;55.036;73.242;2022-07-29T00:41:01;4.75;;;3.40;;
64060;SDS011;60147;55.036;73.242;2022-07-29T00:43:27;4.63;;;3.17;;
64060;SDS011;60147;55.036;73.242;2022-07-29T00:45:53;5.28;;;3.17;;
64060;SDS011;60147;55.036;73.242;2022-07-29T00:48:19;5.53;;;3.22;;
64060;SDS011;60147;55.036;73.242;2022-07-29T00:50:45;5.18;;;3.17;;
64060;SDS011;60147;55.036;73.242;2022-07-29T00:53:10;5.22;;;3.30;;
64060;SDS011;60147;55.036;73.242;2022-07-29T00:55:37;3.70;;;3.00;;
64060;SDS011;60147;55.036;73.242;2022-07-29T00:58:03;4.18;;;3.00;;
64060;SDS011;60147;55.036;73.242;2022-07-29T01:00:39;4.78;;;3.25;;
64060;SDS011;60147;55.036;73.242;2022-07-29T01:03:16;6.35;;;3.25;;
64060;SDS011;60147;55.036;73.242;2022-07-29T01:05:42;6.57;;;2.90;;
64060;SDS011;60147;55.036;73.242;2022-07-29T01:08:12;3.73;;;2.90;;
64060;SDS011;60147;55.036;73.242;2022-07-29T01:10:43;3.78;;;3.20;;
64060;SDS011;60147;55.036;73.242;2022-07-29T01:13:10;4.32;;;3.33;;
64060;SDS011;60147;55.036;73.242;2022-07-29T01:15:53;4.18;;;3.05;;
64060;SDS011;60147;55.036;73.242;2022-07-29T01:18:25;4.70;;;3.05;;
64060;SDS011;60147;55.036;73.242;2022-07-29T01:26:41;5.95;;;2.97;;
64060;SDS011;60147;55.036;73.242;2022-07-29T01:29:12;5.43;;;3.20;;
64060;SDS011;60147;55.036;73.242;2022-07-29T01:31:43;3.83;;;2.78;;
64060;SDS011;60147;55.036;73.242;2022-07-29T01:34:21;4.30;;;3.10;;
64060;SDS011;60147;55.036;73.242;2022-07-29T01:37:36;4.65;;;3.13;;
64060;SDS011;60147;55.036;73.242;2022-07-29T01:39:36;4.30;;;3.00;;
64060;SDS011;60147;55.036;73.242;2022-07-29T01:44:37;6.72;;;3.35;;
64060;SDS011;60147;55.036;73.242;2022-07-29T01:47:16;4.78;;;3.00;;
64060;SDS011;60147;55.036;73.242;2022-07-29T01:49:45;3.50;;;2.90;;
64060;SDS011;60147;55.036;73.242;2022-07-29T01:52:31;4.10;;;3.08;;
64060;SDS011;60147;55.036;73.242;2022-07-29T01:55:01;4.30;;;3.13;;
64060;SDS011;60147;55.036;73.242;2022-07-29T01:57:29;4.88;;;3.50;;
64060;SDS011;60147;55.036;73.242;2022-07-29T01:59:56;4.38;;;3.60;;
64060;SDS011;60147;55.036;73.242;2022-07-29T02:02:33;5.03;;;3.60;;
64060;SDS011;60147;55.036;73.242;2022-07-29T02:05:01;4.85;;;3.78;;
64060;SDS011;60147;55.036;73.242;2022-07-29T02:07:28;5.03;;;4.18;;
64060;SDS011;60147;55.036;73.242;2022-07-29T02:09:58;4.63;;;3.30;;
64060;SDS011;60147;55.036;73.242;2022-07-29T02:12:25;8.32;;;3.35;;
64060;SDS011;60147;55.036;73.242;2022-07-29T02:14:58;6.55;;;3.92;;
64060;SDS011;60147;55.036;73.242;2022-07-29T02:17:26;5.22;;;3.50;;
64060;SDS011;60147;55.036;73.242;2022-07-29T02:19:54;6.07;;;3.90;;
64060;SDS011;60147;55.036;73.242;2022-07-29T02:22:21;5.85;;;3.47;;
64060;SDS011;60147;55.036;73.242;2022-07-29T02:24:48;6.70;;;4.07;;
64060;SDS011;60147;55.036;73.242;2022-07-29T02:27:17;6.07;;;3.70;;
64060;SDS011;60147;55.036;73.242;2022-07-29T02:29:45;4.53;;;3.30;;
64060;SDS011;60147;55.036;73.242;2022-07-29T02:32:12;5.22;;;3.95;;
64060;SDS011;60147;55.036;73.242;2022-07-29T02:34:38;6.40;;;4.20;;
64060;SDS011;60147;55.036;73.242;2022-07-29T02:37:05;6.35;;;4.00;;
64060;SDS011;60147;55.036;73.242;2022-07-29T02:39:31;7.00;;;4.22;;
64060;SDS011;60147;55.036;73.242;2022-07-29T02:41:59;6.95;;;3.83;;
64060;SDS011;60147;55.036;73.242;2022-07-29T02:44:27;6.15;;;4.18;;
64060;SDS011;60147;55.036;73.242;2022-07-29T02:47:16;8.48;;;4.00;;
64060;SDS011;60147;55.036;73.242;2022-07-29T02:49:41;6.93;;;3.67;;
64060;SDS011;60147;55.036;73.242;2022-07-29T02:52:29;5.55;;;3.75;;
64060;SDS011;60147;55.036;73.242;2022-07-29T02:57:48;5.85;;;3.92;;
64060;SDS011;60147;55.036;73.242;2022-07-29T03:00:19;5.50;;;3.70;;
64060;SDS011;60147;55.036;73.242;2022-07-29T03:02:46;4.97;;;3.42;;
64060;SDS011;60147;55.036;73.242;2022-07-29T03:05:17;4.32;;;3.15;;
64060;SDS011;60147;55.036;73.242;2022-07-29T03:07:52;7.57;;;3.30;;
64060;SDS011;60147;55.036;73.242;2022-07-29T03:10:20;5.30;;;3.30;;
64060;SDS011;60147;55.036;73.242;2022-07-29T03:12:46;4.55;;;3.13;;
64060;SDS011;60147;55.036;73.242;2022-07-29T03:15:12;4.85;;;3.33;;
64060;SDS011;60147;55.036;73.242;2022-07-29T03:17:39;4.22;;;3.03;;
64060;SDS011;60147;55.036;73.242;2022-07-29T03:20:06;4.43;;;3.10;;
64060;SDS011;60147;55.036;73.242;2022-07-29T03:22:41;5.03;;;3.70;;
64060;SDS011;60147;55.036;73.242;2022-07-29T03:25:13;5.88;;;3.30;;
64060;SDS011;60147;55.036;73.242;2022-07-29T03:27:44;5.68;;;3.40;;
64060;SDS011;60147;55.036;73.242;2022-07-29T03:30:12;5.80;;;3.85;;
64060;SDS011;60147;55.036;73.242;2022-07-29T03:32:48;7.35;;;4.10;;
64060;SDS011;60147;55.036;73.242;2022-07-29T03:35:15;5.72;;;3.67;;
64060;SDS011;60147;55.036;73.242;2022-07-29T03:37:42;6.72;;;3.50;;
64060;SDS011;60147;55.036;73.242;2022-07-29T03:40:09;5.82;;;4.03;;
64060;SDS011;60147;55.036;73.242;2022-07-29T03:42:36;8.45;;;3.90;;
64060;SDS011;60147;55.036;73.242;2022-07-29T03:45:08;12.13;;;4.60;;
64060;SDS011;60147;55.036;73.242;2022-07-29T03:47:42;5.28;;;3.20;;
64060;SDS011;60147;55.036;73.242;2022-07-29T03:50:08;6.38;;;3.30;;
64060;SDS011;60147;55.036;73.242;2022-07-29T03:52:45;5.88;;;4.18;;
64060;SDS011;60147;55.036;73.242;2022-07-29T03:55:16;5.22;;;3.33;;
64060;SDS011;60147;55.036;73.242;2022-07-29T03:57:47;6.75;;;3.78;;
64060;SDS011;60147;55.036;73.242;2022-07-29T04:00:18;6.82;;;4.05;;
64060;SDS011;60147;55.036;73.242;2022-07-29T04:02:44;5.00;;;3.40;;
64060;SDS011;60147;55.036;73.242;2022-07-29T04:05:14;8.60;;;4.55;;
64060;SDS011;60147;55.036;73.242;2022-07-29T04:07:42;9.48;;;3.90;;
64060;SDS011;60147;55.036;73.242;2022-07-29T04:10:13;8.43;;;4.80;;
64060;SDS011;60147;55.036;73.242;2022-07-29T04:12:41;12.95;;;6.22;;
64060;SDS011;60147;55.036;73.242;2022-07-29T04:15:07;8.73;;;4.50;;
64060;SDS011;60147;55.036;73.242;2022-07-29T04:17:33;8.93;;;4.82;;
64060;SDS011;60147;55.036;73.242;2022-07-29T04:20:08;9.52;;;5.68;;
64060;SDS011;60147;55.036;73.242;2022-07-29T04:22:34;16.55;;;8.95;;
64060;SDS011;60147;55.036;73.242;2022-07-29T04:25:00;20.75;;;10.00;;
64060;SDS011;60147;55.036;73.242;2022-07-29T04:27:26;11.20;;;7.15;;
64060;SDS011;60147;55.036;73.242;2022-07-29T04:29:52;11.20;;;6.35;;
64060;SDS011;60147;55.036;73.242;2022-07-29T04:32:24;11.73;;;7.05;;
64060;SDS011;60147;55.036;73.242;2022-07-29T04:35:00;10.98;;;7.65;;
64060;SDS011;60147;55.036;73.242;2022-07-29T04:37:26;17.45;;;9.82;;
64060;SDS011;60147;55.036;73.242;2022-07-29T04:39:54;16.13;;;9.75;;
64060;SDS011;60147;55.036;73.242;2022-07-29T04:42:20;16.58;;;9.25;;
64060;SDS011;60147;55.036;73.242;2022-07-29T04:47:17;17.20;;;11.57;;
64060;SDS011;60147;55.036;73.242;2022-07-29T04:49:43;18.23;;;10.52;;
64060;SDS011;60147;55.036;73.242;2022-07-29T04:52:09;18.58;;;11.38;;
64060;SDS011;60147;55.036;73.242;2022-07-29T04:54:40;15.23;;;10.48;;
64060;SDS011;60147;55.036;73.242;2022-07-29T04:57:06;19.25;;;10.75;;
64060;SDS011;60147;55.036;73.242;2022-07-29T04:59:32;15.02;;;10.13;;
64060;SDS011;60147;55.036;73.242;2022-07-29T05:01:58;16.20;;;10.02;;
64060;SDS011;60147;55.036;73.242;2022-07-29T05:04:24;14.65;;;9.63;;
64060;SDS011;60147;55.036;73.242;2022-07-29T05:07:00;12.18;;;8.82;;
64060;SDS011;60147;55.036;73.242;2022-07-29T05:09:26;12.68;;;9.20;;
64060;SDS011;60147;55.036;73.242;2022-07-29T05:11:52;13.75;;;9.63;;
64060;SDS011;60147;55.036;73.242;2022-07-29T05:14:18;12.45;;;9.07;;
64060;SDS011;60147;55.036;73.242;2022-07-29T05:16:46;12.40;;;8.88;;
64060;SDS011;60147;55.036;73.242;2022-07-29T05:19:13;12.50;;;9.90;;
64060;SDS011;60147;55.036;73.242;2022-07-29T05:21:41;11.95;;;9.30;;
64060;SDS011;60147;55.036;73.242;2022-07-29T05:24:12;13.13;;;9.45;;
64060;SDS011;60147;55.036;73.242;2022-07-29T05:26:38;12.93;;;9.38;;
64060;SDS011;60147;55.036;73.242;2022-07-29T05:29:09;11.63;;;8.90;;
64060;SDS011;60147;55.036;73.242;2022-07-29T05:31:36;13.27;;;9.57;;
64060;SDS011;60147;55.036;73.242;2022-07-29T05:34:08;12.38;;;8.73;;
64060;SDS011;60147;55.036;73.242;2022-07-29T05:39:04;13.50;;;8.18;;
64060;SDS011;60147;55.036;73.242;2022-07-29T05:41:35;10.88;;;8.43;;
64060;SDS011;60147;55.036;73.242;2022-07-29T05:44:01;16.60;;;9.55;;
64060;SDS011;60147;55.036;73.242;2022-07-29T05:46:27;19.35;;;9.73;;
64060;SDS011;60147;55.036;73.242;2022-07-29T05:48:53;12.27;;;8.23;;
64060;SDS011;60147;55.036;73.242;2022-07-29T05:51:24;11.43;;;7.80;;
64060;SDS011;60147;55.036;73.242;2022-07-29T05:53:55;10.63;;;7.95;;
64060;SDS011;60147;55.036;73.242;2022-07-29T05:56:26;10.80;;;7.97;;
64060;SDS011;60147;55.036;73.242;2022-07-29T05:58:56;10.55;;;7.13;;
64060;SDS011;60147;55.036;73.242;2022-07-29T06:01:22;11.45;;;6.55;;
64060;SDS011;60147;55.036;73.242;2022-07-29T06:03:48;9.20;;;6.55;;
64060;SDS011;60147;55.036;73.242;2022-07-29T06:06:24;10.60;;;6.85;;
64060;SDS011;60147;55.036;73.242;2022-07-29T06:08:50;7.65;;;6.28;;
64060;SDS011;60147;55.036;73.242;2022-07-29T06:11:16;9.43;;;7.05;;
64060;SDS011;60147;55.036;73.242;2022-07-29T06:13:42;10.43;;;7.20;;
64060;SDS011;60147;55.036;73.242;2022-07-29T06:16:08;9.88;;;7.30;;
64060;SDS011;60147;55.036;73.242;2022-07-29T06:18:34;11.50;;;7.32;;
64060;SDS011;60147;55.036;73.242;2022-07-29T06:21:00;9.75;;;6.78;;
64060;SDS011;60147;55.036;73.242;2022-07-29T06:23:26;11.07;;;6.53;;
64060;SDS011;60147;55.036;73.242;2022-07-29T06:25:52;10.23;;;7.22;;
64060;SDS011;60147;55.036;73.242;2022-07-29T06:28:18;8.80;;;6.68;;
64060;SDS011;60147;55.036;73.242;2022-07-29T06:30:54;10.63;;;6.47;;
64060;SDS011;60147;55.036;73.242;2022-07-29T06:33:29;8.98;;;6.40;;
64060;SDS011;60147;55.036;73.242;2022-07-29T06:35:55;9.90;;;6.53;;
64060;SDS011;60147;55.036;73.242;2022-07-29T06:38:21;9.38;;;5.93;;
64060;SDS011;60147;55.036;73.242;2022-07-29T06:40:49;8.88;;;6.50;;
64060;SDS011;60147;55.036;73.242;2022-07-29T06:43:34;13.02;;;6.45;;
64060;SDS011;60147;55.036;73.242;2022-07-29T06:46:03;10.50;;;6.97;;
64060;SDS011;60147;55.036;73.242;2022-07-29T06:48:40;8.10;;;6.60;;
64060;SDS011;60147;55.036;73.242;2022-07-29T06:51:06;8.13;;;6.70;;
64060;SDS011;60147;55.036;73.242;2022-07-29T06:53:37;12.52;;;6.60;;
64060;SDS011;60147;55.036;73.242;2022-07-29T06:56:04;14.02;;;6.30;;
64060;SDS011;60147;55.036;73.242;2022-07-29T06:58:30;8.38;;;6.40;;
64060;SDS011;60147;55.036;73.242;2022-07-29T07:01:00;11.13;;;6.10;;
64060;SDS011;60147;55.036;73.242;2022-07-29T07:03:27;8.70;;;6.35;;
64060;SDS011;60147;55.036;73.242;2022-07-29T07:05:53;9.95;;;6.45;;
64060;SDS011;60147;55.036;73.242;2022-07-29T07:08:20;9.65;;;6.50;;
64060;SDS011;60147;55.036;73.242;2022-07-29T07:10:46;7.95;;;6.35;;
64060;SDS011;60147;55.036;73.242;2022-07-29T07:13:12;9.50;;;6.60;;
64060;SDS011;60147;55.036;73.242;2022-07-29T07:15:38;12.02;;;6.47;;
64060;SDS011;60147;55.036;73.242;2022-07-29T07:18:04;10.73;;;6.13;;
64060;SDS011;60147;55.036;73.242;2022-07-29T07:20:34;10.88;;;6.60;;
64060;SDS011;60147;55.036;73.242;2022-07-29T07:23:00;9.30;;;6.40;;
64060;SDS011;60147;55.036;73.242;2022-07-29T07:25:26;9.93;;;6.28;;
64060;SDS011;60147;55.036;73.242;2022-07-29T07:27:52;12.38;;;6.53;;
64060;SDS011;60147;55.036;73.242;2022-07-29T07:30:18;14.45;;;6.05;;
64060;SDS011;60147;55.036;73.242;2022-07-29T07:33:02;13.43;;;7.93;;
64060;SDS011;60147;55.036;73.242;2022-07-29T07:35:28;11.05;;;7.40;;
64060;SDS011;60147;55.036;73.242;2022-07-29T07:37:55;13.20;;;7.82;;
64060;SDS011;60147;55.036;73.242;2022-07-29T07:40:21;9.50;;;6.13;;
64060;SDS011;60147;55.036;73.242;2022-07-29T07:42:51;9.38;;;6.53;;
64060;SDS011;60147;55.036;73.242;2022-07-29T07:45:17;12.02;;;7.05;;
64060;SDS011;60147;55.036;73.242;2022-07-29T07:47:48;9.20;;;6.35;;
64060;SDS011;60147;55.036;73.242;2022-07-29T07:53:10;10.23;;;6.47;;
64060;SDS011;60147;55.036;73.242;2022-07-29T07:55:43;8.48;;;6.25;;
64060;SDS011;60147;55.036;73.242;2022-07-29T07:58:09;6.60;;;5.55;;
64060;SDS011;60147;55.036;73.242;2022-07-29T08:00:35;9.40;;;6.43;;
64060;SDS011;60147;55.036;73.242;2022-07-29T08:03:01;12.00;;;6.43;;
64060;SDS011;60147;55.036;73.242;2022-07-29T08:05:28;10.93;;;6.05;;
64060;SDS011;60147;55.036;73.242;2022-07-29T08:07:54;11.35;;;6.25;;
64060;SDS011;60147;55.036;73.242;2022-07-29T08:10:20;10.23;;;5.88;;
64060;SDS011;60147;55.036;73.242;2022-07-29T08:13:04;11.07;;;5.72;;
64060;SDS011;60147;55.036;73.242;2022-07-29T08:15:31;8.27;;;5.80;;
64060;SDS011;60147;55.036;73.242;2022-07-29T08:18:01;10.75;;;6.20;;
64060;SDS011;60147;55.036;73.242;2022-07-29T08:20:27;8.25;;;5.68;;
64060;SDS011;60147;55.036;73.242;2022-07-29T08:22:53;10.15;;;5.60;;
64060;SDS011;60147;55.036;73.242;2022-07-29T08:25:19;7.97;;;6.30;;
64060;SDS011;60147;55.036;73.242;2022-07-29T08:27:56;9.95;;;6.05;;
64060;SDS011;60147;55.036;73.242;2022-07-29T08:30:22;6.60;;;5.43;;
64060;SDS011;60147;55.036;73.242;2022-07-29T08:32:48;11.15;;;6.00;;
64060;SDS011;60147;55.036;73.242;2022-07-29T08:35:15;11.63;;;6.15;;
64060;SDS011;60147;55.036;73.242;2022-07-29T08:37:43;10.68;;;5.95;;
64060;SDS011;60147;55.036;73.242;2022-07-29T08:40:09;8.80;;;6.30;;
64060;SDS011;60147;55.036;73.242;2022-07-29T08:42:35;38.75;;;7.88;;
64060;SDS011;60147;55.036;73.242;2022-07-29T08:45:01;15.55;;;7.05;;
64060;SDS011;60147;55.036;73.242;2022-07-29T08:47:27;12.77;;;6.65;;
64060;SDS011;60147;55.036;73.242;2022-07-29T08:49:53;11.55;;;6.53;;
64060;SDS011;60147;55.036;73.242;2022-07-29T08:52:19;14.55;;;5.97;;
64060;SDS011;60147;55.036;73.242;2022-07-29T08:54:45;7.75;;;6.00;;
64060;SDS011;60147;55.036;73.242;2022-07-29T08:57:12;10.55;;;7.00;;
64060;SDS011;60147;55.036;73.242;2022-07-29T08:59:38;10.18;;;6.88;;
64060;SDS011;60147;55.036;73.242;2022-07-29T09:02:19;11.40;;;6.00;;
64060;SDS011;60147;55.036;73.242;2022-07-29T09:04:46;7.78;;;5.72;;
64060;SDS011;60147;55.036;73.242;2022-07-29T09:07:14;9.10;;;5.70;;
64060;SDS011;60147;55.036;73.242;2022-07-29T09:09:41;10.27;;;6.20;;
64060;SDS011;60147;55.036;73.242;2022-07-29T09:12:08;10.45;;;6.15;;
64060;SDS011;60147;55.036;73.242;2022-07-29T09:14:40;14.77;;;7.00;;
64060;SDS011;60147;55.036;73.242;2022-07-29T09:17:08;12.50;;;6.63;;
64060;SDS011;60147;55.036;73.242;2022-07-29T09:19:35;12.77;;;6.20;;
64060;SDS011;60147;55.036;73.242;2022-07-29T09:22:01;8.23;;;6.07;;
64060;SDS011;60147;55.036;73.242;2022-07-29T09:24:37;9.93;;;7.32;;
64060;SDS011;60147;55.036;73.242;2022-07-29T09:27:11;11.77;;;6.95;;
64060;SDS011;60147;55.036;73.242;2022-07-29T09:29:37;12.80;;;6.88;;
64060;SDS011;60147;55.036;73.242;2022-07-29T09:32:14;31.70;;;11.85;;
64060;SDS011;60147;55.036;73.242;2022-07-29T09:34:40;10.82;;;7.25;;
64060;SDS011;60147;55.036;73.242;2022-07-29T09:37:06;18.52;;;8.10;;
64060;SDS011;60147;55.036;73.242;2022-07-29T09:39:33;19.60;;;8.50;;
64060;SDS011;60147;55.036;73.242;2022-07-29T09:43:17;21.45;;;9.23;;
64060;SDS011;60147;55.036;73.242;2022-07-29T09:45:43;15.27;;;8.13;;
64060;SDS011;60147;55.036;73.242;2022-07-29T09:48:19;9.93;;;6.35;;
64060;SDS011;60147;55.036;73.242;2022-07-29T09:50:46;10.20;;;6.43;;
64060;SDS011;60147;55.036;73.242;2022-07-29T09:56:12;13.68;;;6.57;;
64060;SDS011;60147;55.036;73.242;2022-07-29T09:58:39;7.90;;;6.38;;
64060;SDS011;60147;55.036;73.242;2022-07-29T10:01:15;10.43;;;6.63;;
64060;SDS011;60147;55.036;73.242;2022-07-29T10:03:51;11.15;;;7.18;;
64060;SDS011;60147;55.036;73.242;2022-07-29T10:06:22;17.98;;;7.93;;
64060;SDS011;60147;55.036;73.242;2022-07-29T10:08:48;37.00;;;12.48;;
64060;SDS011;60147;55.036;73.242;2022-07-29T10:11:16;20.10;;;9.35;;
64060;SDS011;60147;55.036;73.242;2022-07-29T10:13:42;35.30;;;13.40;;
64060;SDS011;60147;55.036;73.242;2022-07-29T10:16:16;23.25;;;10.25;;
64060;SDS011;60147;55.036;73.242;2022-07-29T10:18:43;18.58;;;8.15;;
64060;SDS011;60147;55.036;73.242;2022-07-29T10:21:09;14.73;;;8.18;;
64060;SDS011;60147;55.036;73.242;2022-07-29T10:23:36;13.63;;;7.82;;
64060;SDS011;60147;55.036;73.242;2022-07-29T10:26:03;13.00;;;7.60;;
64060;SDS011;60147;55.036;73.242;2022-07-29T10:28:32;9.93;;;6.80;;
64060;SDS011;60147;55.036;73.242;2022-07-29T10:31:20;10.80;;;6.63;;
64060;SDS011;60147;55.036;73.242;2022-07-29T10:44:40;9.30;;;7.57;;
64060;SDS011;60147;55.036;73.242;2022-07-29T10:47:07;13.00;;;8.13;;
64060;SDS011;60147;55.036;73.242;2022-07-29T10:49:33;9.23;;;7.10;;
64060;SDS011;60147;55.036;73.242;2022-07-29T10:52:01;10.27;;;7.20;;
64060;SDS011;60147;55.036;73.242;2022-07-29T10:59:43;19.15;;;15.05;;
64060;SDS011;60147;55.036;73.242;2022-07-29T11:07:26;15.43;;;12.13;;
64060;SDS011;60147;55.036;73.242;2022-07-29T11:15:04;15.57;;;11.40;;
64060;SDS011;60147;55.036;73.242;2022-07-29T11:20:37;15.30;;;10.73;;
64060;SDS011;60147;55.036;73.242;2022-07-29T11:26:16;14.13;;;9.43;;
64060;SDS011;60147;55.036;73.242;2022-07-29T11:31:12;9.45;;;7.97;;
64060;SDS011;60147;55.036;73.242;2022-07-29T11:33:38;13.57;;;7.43;;
64060;SDS011;60147;55.036;73.242;2022-07-29T11:36:09;13.38;;;7.88;;
64060;SDS011;60147;55.036;73.242;2022-07-29T11:38:45;12.07;;;8.73;;
64060;SDS011;60147;55.036;73.242;2022-07-29T11:46:14;8.75;;;7.13;;
64060;SDS011;60147;55.036;73.242;2022-07-29T11:48:42;7.93;;;6.88;;
64060;SDS011;60147;55.036;73.242;2022-07-29T11:51:19;10.90;;;8.20;;
64060;SDS011;60147;55.036;73.242;2022-07-29T11:53:48;9.45;;;7.85;;
64060;SDS011;60147;55.036;73.242;2022-07-29T11:56:15;12.52;;;6.88;;
64060;SDS011;60147;55.036;73.242;2022-07-29T12:01:52;12.70;;;7.32;;
64060;SDS011;60147;55.036;73.242;2022-07-29T12:04:21;9.30;;;6.30;;
64060;SDS011;60147;55.036;73.242;2022-07-29T12:06:53;13.52;;;6.63;;
64060;SDS011;60147;55.036;73.242;2022-07-29T12:09:25;9.80;;;5.85;;
64060;SDS011;60147;55.036;73.242;2022-07-29T12:11:57;8.57;;;6.55;;
64060;SDS011;60147;55.036;73.242;2022-07-29T12:14:31;7.80;;;6.18;;
64060;SDS011;60147;55.036;73.242;2022-07-29T12:17:04;11.07;;;6.20;;
64060;SDS011;60147;55.036;73.242;2022-07-29T12:19:30;8.23;;;5.40;;
64060;SDS011;60147;55.036;73.242;2022-07-29T12:22:07;8.27;;;5.65;;
64060;SDS011;60147;55.036;73.242;2022-07-29T12:24:42;8.80;;;5.15;;
64060;SDS011;60147;55.036;73.242;2022-07-29T12:27:08;9.32;;;5.22;;
64060;SDS011;60147;55.036;73.242;2022-07-29T12:29:34;8.02;;;5.55;;
64060;SDS011;60147;55.036;73.242;2022-07-29T12:32:00;8.93;;;5.57;;
64060;SDS011;60147;55.036;73.242;2022-07-29T12:34:26;8.55;;;5.50;;
64060;SDS011;60147;55.036;73.242;2022-07-29T12:36:54;9.85;;;5.60;;
64060;SDS011;60147;55.036;73.242;2022-07-29T12:39:21;12.18;;;5.80;;
64060;SDS011;60147;55.036;73.242;2022-07-29T12:41:53;9.13;;;4.97;;
64060;SDS011;60147;55.036;73.242;2022-07-29T12:44:19;7.20;;;5.20;;
64060;SDS011;60147;55.036;73.242;2022-07-29T12:47:02;8.85;;;4.95;;
64060;SDS011;60147;55.036;73.242;2022-07-29T12:49:28;10.30;;;5.00;;
64060;SDS011;60147;55.036;73.242;2022-07-29T12:54:50;8.95;;;5.25;;
64060;SDS011;60147;55.036;73.242;2022-07-29T12:57:16;14.82;;;5.88;;
64060;SDS011;60147;55.036;73.242;2022-07-29T12:59:42;10.40;;;5.22;;
64060;SDS011;60147;55.036;73.242;2022-07-29T13:02:21;6.93;;;5.50;;
64060;SDS011;60147;55.036;73.242;2022-07-29T13:04:55;10.07;;;5.38;;
64060;SDS011;60147;55.036;73.242;2022-07-29T13:07:28;10.52;;;5.45;;
64060;SDS011;60147;55.036;73.242;2022-07-29T13:15:30;9.70;;;4.85;;
64060;SDS011;60147;55.036;73.242;2022-07-29T13:17:56;9.88;;;5.10;;
64060;SDS011;60147;55.036;73.242;2022-07-29T13:20:26;9.35;;;5.13;;
64060;SDS011;60147;55.036;73.242;2022-07-29T13:23:04;9.95;;;5.43;;
64060;SDS011;60147;55.036;73.242;2022-07-29T13:25:36;6.72;;;4.82;;
64060;SDS011;60147;55.036;73.242;2022-07-29T13:30:52;7.05;;;4.32;;
64060;SDS011;60147;55.036;73.242;2022-07-29T13:33:23;11.70;;;4.55;;
64060;SDS011;60147;55.036;73.242;2022-07-29T13:35:59;13.25;;;4.68;;
64060;SDS011;60147;55.036;73.242;2022-07-29T13:38:26;9.00;;;3.65;;
64060;SDS011;60147;55.036;73.242;2022-07-29T13:41:03;8.48;;;4.13;;
64060;SDS011;60147;55.036;73.242;2022-07-29T13:43:28;5.03;;;3.67;;
64060;SDS011;60147;55.036;73.242;2022-07-29T13:45:54;8.43;;;4.00;;
64060;SDS011;60147;55.036;73.242;2022-07-29T13:48:20;7.75;;;3.53;;
64060;SDS011;60147;55.036;73.242;2022-07-29T13:50:51;6.40;;;3.97;;
64060;SDS011;60147;55.036;73.242;2022-07-29T13:53:23;12.95;;;4.43;;
64060;SDS011;60147;55.036;73.242;2022-07-29T13:55:49;8.73;;;4.63;;
64060;SDS011;60147;55.036;73.242;2022-07-29T13:58:16;10.07;;;4.10;;
64060;SDS011;60147;55.036;73.242;2022-07-29T14:00:42;5.63;;;3.78;;
64060;SDS011;60147;55.036;73.242;2022-07-29T14:03:08;7.35;;;4.57;;
64060;SDS011;60147;55.036;73.242;2022-07-29T14:05:34;7.45;;;4.63;;
64060;SDS011;60147;55.036;73.242;2022-07-29T14:08:10;8.27;;;3.97;;
64060;SDS011;60147;55.036;73.242;2022-07-29T14:10:36;5.57;;;4.10;;
64060;SDS011;60147;55.036;73.242;2022-07-29T14:13:02;7.40;;;3.90;;
64060;SDS011;60147;55.036;73.242;2022-07-29T14:15:28;8.02;;;3.85;;
64060;SDS011;60147;55.036;73.242;2022-07-29T14:17:54;5.93;;;3.85;;
64060;SDS011;60147;55.036;73.242;2022-07-29T14:20:24;5.72;;;3.78;;
64060;SDS011;60147;55.036;73.242;2022-07-29T14:22:50;7.72;;;3.90;;
64060;SDS011;60147;55.036;73.242;2022-07-29T14:25:16;9.40;;;3.95;;
64060;SDS011;60147;55.036;73.242;2022-07-29T14:27:42;6.90;;;3.38;;
64060;SDS011;60147;55.036;73.242;2022-07-29T14:30:13;7.25;;;3.50;;
64060;SDS011;60147;55.036;73.242;2022-07-29T14:32:39;7.30;;;3.67;;
64060;SDS011;60147;55.036;73.242;2022-07-29T14:35:05;6.75;;;3.85;;
64060;SDS011;60147;55.036;73.242;2022-07-29T14:37:31;9.30;;;3.70;;
64060;SDS011;60147;55.036;73.242;2022-07-29T14:39:57;11.18;;;4.55;;
64060;SDS011;60147;55.036;73.242;2022-07-29T14:42:32;8.73;;;3.80;;
64060;SDS011;60147;55.036;73.242;2022-07-29T14:45:08;6.88;;;3.92;;
64060;SDS011;60147;55.036;73.242;2022-07-29T14:47:38;7.55;;;3.72;;
64060;SDS011;60147;55.036;73.242;2022-07-29T14:50:05;5.72;;;3.45;;
64060;SDS011;60147;55.036;73.242;2022-07-29T14:52:31;7.25;;;3.75;;
64060;SDS011;60147;55.036;73.242;2022-07-29T14:54:57;6.60;;;4.03;;
64060;SDS011;60147;55.036;73.242;2022-07-29T14:57:28;7.13;;;3.80;;
64060;SDS011;60147;55.036;73.242;2022-07-29T14:59:54;11.50;;;4.55;;
64060;SDS011;60147;55.036;73.242;2022-07-29T15:02:20;11.07;;;3.83;;
64060;SDS011;60147;55.036;73.242;2022-07-29T15:04:46;7.90;;;4.50;;
64060;SDS011;60147;55.036;73.242;2022-07-29T15:07:13;7.70;;;3.80;;
64060;SDS011;60147;55.036;73.242;2022-07-29T15:09:39;9.05;;;3.80;;
64060;SDS011;60147;55.036;73.242;2022-07-29T15:12:06;7.05;;;3.55;;
64060;SDS011;60147;55.036;73.242;2022-07-29T15:20:26;11.75;;;3.33;;
64060;SDS011;60147;55.036;73.242;2022-07-29T15:22:53;8.30;;;3.85;;
64060;SDS011;60147;55.036;73.242;2022-07-29T15:25:21;7.57;;;3.13;;
64060;SDS011;60147;55.036;73.242;2022-07-29T15:27:57;6.53;;;3.10;;
64060;SDS011;60147;55.036;73.242;2022-07-29T15:30:28;7.75;;;3.63;;
64060;SDS011;60147;55.036;73.242;2022-07-29T15:35:24;5.57;;;3.50;;
64060;SDS011;60147;55.036;73.242;2022-07-29T15:37:50;7.03;;;3.22;;
64060;SDS011;60147;55.036;73.242;2022-07-29T15:40:16;5.32;;;3.40;;
64060;SDS011;60147;55.036;73.242;2022-07-29T15:42:42;7.05;;;3.33;;
64060;SDS011;60147;55.036;73.242;2022-07-29T15:45:08;7.97;;;3.45;;
64060;SDS011;60147;55.036;73.242;2022-07-29T15:47:34;4.65;;;3.47;;
64060;SDS011;60147;55.036;73.242;2022-07-29T15:50:00;6.88;;;3.25;;
64060;SDS011;60147;55.036;73.242;2022-07-29T15:52:36;5.57;;;3.17;;
64060;SDS011;60147;55.036;73.242;2022-07-29T15:55:02;5.40;;;3.10;;
64060;SDS011;60147;55.036;73.242;2022-07-29T15:57:29;4.70;;;2.85;;
64060;SDS011;60147;55.036;73.242;2022-07-29T15:59:54;8.93;;;2.78;;
64060;SDS011;60147;55.036;73.242;2022-07-29T16:02:23;5.88;;;3.05;;
64060;SDS011;60147;55.036;73.242;2022-07-29T16:07:24;6.07;;;2.95;;